EGPF Airport Information

Runway Information
Runway 05 Length 8720 ft width 151 ft
Elevation 26 ft Threshold 0 ft Heading 46
Runway 23 Length 8720 ft Width 151 ft
Elevation 21 ft Threshold 980 ft Heading 226
Runway 09 Length 3622 ft width 151 ft
Elevation 17 ft Threshold 203 ft Heading 91
Runway 27 Length 3622 ft Width 151 ft
Elevation 23 ft Threshold 0 ft Heading 271
Airport Frequencies
Type ACC Name SHANWICK O Frequency 120.35 MHZ
Type APP Name APP Frequency 119.1 MHZ
Type ATIS Name ATIS Frequency 129.575 MHZ
Type GND Name GND Frequency 121.7 MHZ
Type TWR Name TWR Frequency 118.8 MHZ
Airport Navaids
Type NDB Name Glasgow Frequency 331 KHZ
Type VOR-DME Name Glasgow Frequency 115400 KHZ
Airport Weather Information & NOTAM
ADDS - METARS form results

(1547 UTC 01 December 2021)
Data provider http://aviationweather.gov/metar/data/
 
METAR text: EGPF 011520Z AUTO 33005KT 290V010 9999 NCD 04/M02 Q1006
Conditions at: EGPF (GLASGOW AIRPORT , GB) observed 1520 UTC 01 December 2021
Temperature: 4.0°C (39°F)
Dewpoint: -2.0°C (28°F) [RH = 65%]
Pressure (altimeter): 29.70 inches Hg (1006.0 mb)
Winds: from the NNW (330 degrees) at 6 MPH (5 knots; 2.6 m/s)
Visibility: 6 or more miles (10+ km)
Ceiling: at least 12,000 feet AGL
Clouds: sky clear below 12,000 feet AGL
Weather: no significant weather observed at this time

METAR text: EGPF 011450Z AUTO 36005KT 300V030 9999 NCD 05/M02 Q1005
Conditions at: EGPF (GLASGOW AIRPORT , GB) observed 1450 UTC 01 December 2021
Temperature: 5.0°C (41°F)
Dewpoint: -2.0°C (28°F) [RH = 60%]
Pressure (altimeter): 29.68 inches Hg (1005.0 mb)
Winds: from the N (360 degrees) at 6 MPH (5 knots; 2.6 m/s)
Visibility: 6 or more miles (10+ km)
Ceiling: at least 12,000 feet AGL
Clouds: sky clear below 12,000 feet AGL
Weather: no significant weather observed at this time

Forecast for: EGPF (GLASGOW AIRPORT , GB)
Text: TAF EGPF 011054Z 0112/0212 35012KT 9999 SCT020
Forecast period: 1200 to 1700 UTC 01 December 2021
Forecast type: FROM: standard forecast or significant change
Winds: from the N (350 degrees) at 14 MPH (12 knots; 6.2 m/s)
Visibility: 6 or more miles (10+ km)
Ceiling: at least 12,000 feet AGL
Clouds: scattered clouds at 2000 feet AGL
Weather: no significant weather forecast for this period
Text: BECMG 0117/0120 29006KT
Forecast period: 1700 UTC 01 December 2021 to 1200 UTC 02 December 2021
Forecast type: BECOMING: Conditions expected to become as follows by 2000 UTC 01 December 2021
Winds: from the WNW (290 degrees) at 7 MPH (6 knots; 3.1 m/s)
Visibility: 6 or more miles (10+ km)
Ceiling: at least 12,000 feet AGL
Clouds: scattered clouds at 2000 feet AGL
Weather: no significant weather forecast for this period